Airport Name : Malcolm Mckinnon

Other Name : Malcolm Mckinnon

ICAO : KSSI

IATA : SSI

FAA : SSI

Latitude : 31.151814

Longitude : -81.391253

Country : United States

Local Date and Time : 28 Feb 2024 16:43

 

TAF (Terminal Aerodrome Forecast)

KSSI 281952Z 2820/2918 15010G18KT P6SM FEW030 BKN250 FM290100 20008KT P6SM FEW040 SCT120 BKN200 FM290400 34009KT P6SM VCSH SCT015 BKN035 TEMPO 2904/2908 BKN015 FM291300 02014G24KT P6SM SCT020 BKN035

 

METAR (METeorological Aerodrome Report)

KSSI 282135Z AUTO 24013G18KT 10SM CLR 28/13 A3001 RMK AO2

KSSI 282115Z AUTO 24013KT 10SM CLR 27/14 A3001 RMK AO2

KSSI 282055Z AUTO 14006KT 10SM CLR 22/17 A3001 RMK AO2

KSSI 282035Z AUTO 15006KT 10SM CLR 21/16 A3000 RMK AO2

KSSI 282015Z AUTO 16009KT 10SM CLR 21/16 A3000 RMK AO2

KSSI 281955Z AUTO 16009KT 10SM CLR 21/16 A3000 RMK AO2

KSSI 281935Z AUTO 15009KT 10SM CLR 22/16 A3000 RMK AO2

KSSI 281915Z AUTO 15008G15KT 10SM CLR 25/16 A3000 RMK AO2

KSSI 281855Z AUTO 21011G17KT 10SM CLR 26/15 A3002 RMK AO2

KSSI 281835Z AUTO VRB05KT 10SM CLR 24/16 A3003 RMK AO2

KSSI 281815Z AUTO 22012G18KT 10SM CLR 26/15 A3004 RMK AO2

KSSI 281755Z AUTO 22010G15KT 10SM CLR 26/15 A3005 RMK AO2